Terminal Aerodrome Forecast
Issued by NWS Billings, MT

Home | Current Version | Previous Version | Graphics & Text | Print | Product List | Glossary On
Versions: 1 2 3 4 5 6 7 8 9 10 11 12 13 14 15 16
000
FTUS45 KBYZ 190241 AAB
TAFMLS
TAF AMD
KMLS 190241Z 1903/1924 34014KT P6SM VCTS SCT060CB BKN080
      TEMPO 1903/1904 32020G30KT 5SM -SHRA BKN040
     FM190400 31014KT P6SM VCSH SCT060 BKN080
     FM190600 27012KT P6SM FEW080=

USA.gov is the U.S. government's official web portal to all federal, state and local government web resources and services.